UATT

Aktobe / Aktyubinsk Airport

Airport
ICAO code
UATT
IATA Code
AKX
Summary
ICAO Region
APAC
ICAO Territory
Location

Aktobe,

Serving
Aktobe
Elevation
738 ft
Coordinates
50° 14' 59" N , 57° 12' 9" E
KCC
Airport BS
Bird Strike
Airport CFIT
Altimeter Temperature Error Correction
Metar
Observation
UATT 060630Z 18008MPS CAVOK 17/M12 Q1024 NOSIG RMK QFE748/0998
Station
Aktjubinsk
Date/Time
2022-10-06 06:30:00
Wind direction
180°
Lowest cloud amount
clouds and visibility OK
Temperature
17°C
Dew point
-12°C
Humidity
12%
QNH
1024 hPa
Weather condition
n/a

Description

International airport serving the city of Aktobe.

Climatology

Cold Semi-arid climate (Köppen climate classification BSk). - Hot, sometimes extremely hot summers and cold, sometimes very cold winters. Some snowfall during the winter. Areas featuring cold semi-arid climates are sometimes subject to major temperature swings during a 24 hour period.

Runways

Designator Length Width Surface Rops
13/31 3097 60 CON No/No

Airport map

Aerial View

SKYbrary Partners:

Safety knowledge contributed by: